Time,TemperatureF,DewpointF,PressureIn,WindDirection,WindDirectionDegrees,WindSpeedMPH,WindSpeedGustMPH,Humidity,HourlyPrecipIn,Conditions,Clouds,dailyrainin,SoftwareType,DateUTC
2013-02-26 04:32:00,49.6,48.2,29.42,East,80,1.0,1.0,95,0.51,,,0.38,Wunderground v.1.15,2013-02-26 10:32:00,
2013-02-26 04:33:00,49.6,48.2,29.42,East,80,1.0,13.0,95,0.51,,,0.38,Wunderground v.1.15,2013-02-26 10:33:00,
2013-02-26 04:36:00,49.6,48.2,29.42,East,86,1.0,13.0,95,0.42,,,0.40,Wunderground v.1.15,2013-02-26 10:36:00,
2013-02-26 04:37:00,49.6,48.2,29.43,SSE,163,1.0,13.0,95,0.24,,,0.40,Wunderground v.1.15,2013-02-26 10:37:00,
2013-02-26 04:42:00,49.6,48.2,29.43,South,170,1.0,13.0,95,0.38,,,0.42,Wunderground v.1.15,2013-02-26 10:42:00,
2013-02-26 04:47:00,49.7,48.3,29.42,South,175,1.0,13.0,95,0.20,,,0.45,Wunderground v.1.15,2013-02-26 10:47:00,
2013-02-26 04:52:00,49.6,48.2,29.42,South,174,2.0,2.0,95,0.21,,,0.46,Wunderground v.1.15,2013-02-26 10:52:00,
2013-02-26 04:58:00,49.6,48.2,29.41,SSE,166,1.0,13.0,95,0.15,,,0.48,Wunderground v.1.15,2013-02-26 10:58:00,
2013-02-26 05:04:00,49.7,48.3,29.42,SE,135,1.0,2.0,95,0.20,,,0.50,Wunderground v.1.15,2013-02-26 11:04:00,
2013-02-26 05:10:00,49.7,48.3,29.41,SE,128,1.0,3.0,95,0.23,,,0.52,Wunderground v.1.15,2013-02-26 11:10:00,
2013-02-26 05:16:00,49.7,48.3,29.41,South,190,1.0,2.0,95,0.21,,,0.54,Wunderground v.1.15,2013-02-26 11:16:00,
2013-02-26 05:22:00,49.7,48.3,29.42,South,169,2.0,3.0,95,0.27,,,0.56,Wunderground v.1.15,2013-02-26 11:22:00,
2013-02-26 05:28:00,49.7,48.3,29.41,SE,146,3.0,4.0,95,0.25,,,0.59,Wunderground v.1.15,2013-02-26 11:28:00,
2013-02-26 05:33:00,49.7,48.3,29.40,SE,135,2.0,2.0,95,0.34,,,0.62,Wunderground v.1.15,2013-02-26 11:33:00,
2013-02-26 07:08:00,50.0,48.6,29.39,SSW,207,4.0,7.0,95,0.00,,,0.68,Wunderground v.1.15,2013-02-26 13:08:00,
2013-02-26 07:14:00,50.1,48.4,29.40,South,189,5.0,8.0,94,0.00,,,0.68,Wunderground v.1.15,2013-02-26 13:14:00,
2013-02-26 07:20:00,50.3,48.6,29.39,SSW,192,5.0,5.0,94,0.00,,,0.68,Wunderground v.1.15,2013-02-26 13:20:00,
2013-02-26 07:25:00,50.3,48.6,29.40,South,186,4.0,5.0,94,0.00,,,0.68,Wunderground v.1.15,2013-02-26 13:25:00,
2013-02-26 07:30:00,50.3,48.6,29.40,SSW,197,4.0,7.0,94,0.00,,,0.68,Wunderground v.1.15,2013-02-26 13:30:00,
2013-02-26 07:35:00,50.4,48.5,29.40,SSW,210,6.0,8.0,93,0.00,,,0.68,Wunderground v.1.15,2013-02-26 13:35:00,
2013-02-26 07:40:00,50.4,48.5,29.40,SW,218,6.0,9.0,93,0.00,,,0.68,Wunderground v.1.15,2013-02-26 13:40:00,
2013-02-26 07:46:00,50.4,48.5,29.41,SW,215,7.0,10.0,93,0.00,,,0.68,Wunderground v.1.15,2013-02-26 13:46:00,
2013-02-26 07:51:00,50.5,48.6,29.41,SSW,207,8.0,10.0,93,0.00,,,0.68,Wunderground v.1.15,2013-02-26 13:51:00,
2013-02-26 07:56:00,50.7,48.7,29.41,SW,231,8.0,10.0,93,0.00,,,0.68,Wunderground v.1.15,2013-02-26 13:56:00,
2013-02-26 08:02:00,50.8,48.8,29.41,SW,219,8.0,8.0,93,0.00,,,0.68,Wunderground v.1.15,2013-02-26 14:02:00,
2013-02-26 08:08:00,50.8,48.8,29.41,WSW,238,7.0,9.0,93,0.00,,,0.68,Wunderground v.1.15,2013-02-26 14:08:00,
2013-02-26 08:13:00,50.6,48.7,29.41,SSW,208,7.0,9.0,93,0.00,,,0.69,Wunderground v.1.15,2013-02-26 14:13:00,
2013-02-26 08:19:00,50.3,48.1,29.41,SSW,208,6.0,9.0,92,0.00,,,0.69,Wunderground v.1.15,2013-02-26 14:19:00,
2013-02-26 08:25:00,50.3,48.4,29.41,SW,227,6.0,8.0,93,0.00,,,0.69,Wunderground v.1.15,2013-02-26 14:25:00,
2013-02-26 08:31:00,50.3,48.4,29.41,SSW,211,5.0,6.0,93,0.00,,,0.69,Wunderground v.1.15,2013-02-26 14:31:00,
2013-02-26 11:07:00,50.4,48.5,29.43,WNW,283,4.0,8.0,93,0.00,,,0.73,Wunderground v.1.15,2013-02-26 17:07:00,
2013-02-26 11:13:00,51.2,48.7,29.43,West,259,5.0,8.0,91,0.00,,,0.73,Wunderground v.1.15,2013-02-26 17:13:00,
2013-02-26 11:18:00,52.4,49.3,29.43,WSW,243,7.0,10.0,89,0.00,,,0.73,Wunderground v.1.15,2013-02-26 17:18:00,
2013-02-26 11:24:00,53.5,49.4,29.43,WSW,248,8.0,10.0,86,0.00,,,0.73,Wunderground v.1.15,2013-02-26 17:24:00,
2013-02-26 11:29:00,51.2,44.6,29.43,WSW,257,9.0,13.0,78,0.00,,,0.74,Wunderground v.1.15,2013-02-26 17:29:00,
2013-02-26 11:35:00,49.9,45.3,29.43,West,266,12.0,14.0,84,0.00,,,0.74,Wunderground v.1.15,2013-02-26 17:35:00,
2013-02-26 11:41:00,50.2,45.6,29.44,WSW,252,13.0,15.0,84,0.00,,,0.74,Wunderground v.1.15,2013-02-26 17:41:00,
2013-02-26 11:46:00,50.2,45.2,29.44,West,267,12.0,16.0,83,0.00,,,0.74,Wunderground v.1.15,2013-02-26 17:46:00,
2013-02-26 11:51:00,49.9,44.3,29.44,WSW,244,13.0,18.0,81,0.00,,,0.74,Wunderground v.1.15,2013-02-26 17:51:00,
2013-02-26 11:56:00,49.8,44.2,29.44,WSW,248,15.0,18.0,81,0.00,,,0.74,Wunderground v.1.15,2013-02-26 17:56:00,
2013-02-26 12:01:00,49.3,43.4,29.45,West,275,14.0,14.0,80,0.00,,,0.74,Wunderground v.1.15,2013-02-26 18:01:00,
2013-02-26 12:06:00,48.7,43.1,29.45,West,263,13.0,15.0,81,0.00,,,0.74,Wunderground v.1.15,2013-02-26 18:06:00,
2013-02-26 12:12:00,47.9,41.7,29.45,West,262,13.0,14.0,79,0.00,,,0.74,Wunderground v.1.15,2013-02-26 18:12:00,
2013-02-26 12:17:00,47.4,41.9,29.45,WSW,256,12.0,14.0,81,0.00,,,0.74,Wunderground v.1.15,2013-02-26 18:17:00,
2013-02-26 12:22:00,47.0,41.8,29.45,WSW,253,11.0,13.0,82,0.00,,,0.74,Wunderground v.1.15,2013-02-26 18:22:00,
2013-02-26 12:27:00,47.0,41.8,29.45,WSW,250,11.0,13.0,82,0.00,,,0.74,Wunderground v.1.15,2013-02-26 18:27:00,
2013-02-26 12:33:00,46.9,42.0,29.45,WSW,245,10.0,10.0,83,0.00,,,0.74,Wunderground v.1.15,2013-02-26 18:33:00,
2013-02-26 12:39:00,46.8,41.9,29.45,WSW,254,9.0,11.0,83,0.00,,,0.74,Wunderground v.1.15,2013-02-26 18:39:00,
2013-02-26 12:45:00,46.5,41.6,29.45,WSW,244,9.0,13.0,83,0.00,,,0.74,Wunderground v.1.15,2013-02-26 18:45:00,
2013-02-26 12:51:00,46.9,42.0,29.45,WSW,258,11.0,13.0,83,0.00,,,0.74,Wunderground v.1.15,2013-02-26 18:51:00,
2013-02-26 12:57:00,47.2,42.6,29.45,SW,236,11.0,14.0,84,0.00,,,0.74,Wunderground v.1.15,2013-02-26 18:57:00,
2013-02-26 13:02:00,47.4,42.5,29.46,WSW,253,10.0,11.0,83,0.00,,,0.74,Wunderground v.1.15,2013-02-26 19:02:00,
2013-02-26 13:07:00,47.1,41.9,29.46,WSW,252,9.0,11.0,82,0.00,,,0.74,Wunderground v.1.15,2013-02-26 19:07:00,
2013-02-26 13:13:00,46.9,41.7,29.46,WSW,246,9.0,12.0,82,0.00,,,0.74,Wunderground v.1.15,2013-02-26 19:13:00,
2013-02-26 13:18:00,46.4,41.5,29.47,WSW,241,10.0,13.0,83,0.00,,,0.74,Wunderground v.1.15,2013-02-26 19:18:00,
2013-02-26 13:23:00,45.6,41.4,29.47,WSW,242,11.0,11.0,85,0.00,,,0.74,Wunderground v.1.15,2013-02-26 19:23:00,
2013-02-26 13:29:00,45.5,41.6,29.47,West,265,10.0,14.0,86,0.00,,,0.74,Wunderground v.1.15,2013-02-26 19:29:00,
2013-02-26 13:35:00,45.1,41.5,29.48,SW,234,12.0,16.0,87,0.00,,,0.74,Wunderground v.1.15,2013-02-26 19:35:00,
2013-02-26 13:40:00,44.9,41.3,29.48,WSW,242,13.0,13.0,87,0.00,,,0.74,Wunderground v.1.15,2013-02-26 19:40:00,
2013-02-26 13:46:00,44.9,41.3,29.48,WSW,253,13.0,17.0,87,0.00,,,0.74,Wunderground v.1.15,2013-02-26 19:46:00,
2013-02-26 13:51:00,44.8,40.9,29.48,West,261,14.0,16.0,86,0.00,,,0.74,Wunderground v.1.15,2013-02-26 19:51:00,
2013-02-26 13:56:00,45.0,41.1,29.48,SW,234,15.0,20.0,86,0.00,,,0.74,Wunderground v.1.15,2013-02-26 19:56:00,
2013-02-26 14:02:00,45.4,41.2,29.48,WSW,250,15.0,15.0,85,0.00,,,0.74,Wunderground v.1.15,2013-02-26 20:02:00,
2013-02-26 14:07:00,45.5,41.3,29.49,WSW,239,14.0,15.0,85,0.00,,,0.74,Wunderground v.1.15,2013-02-26 20:07:00,
2013-02-26 14:12:00,45.9,41.3,29.48,West,269,13.0,15.0,84,0.00,,,0.74,Wunderground v.1.15,2013-02-26 20:12:00,
2013-02-26 14:17:00,46.3,41.4,29.49,WSW,254,13.0,16.0,83,0.00,,,0.74,Wunderground v.1.15,2013-02-26 20:17:00,
2013-02-26 14:22:00,46.4,40.9,29.49,WSW,250,14.0,18.0,81,0.00,,,0.74,Wunderground v.1.15,2013-02-26 20:22:00,
2013-02-26 14:28:00,46.1,40.6,29.49,West,272,15.0,18.0,81,0.00,,,0.74,Wunderground v.1.15,2013-02-26 20:28:00,
2013-02-26 14:33:00,47.3,42.4,29.49,WSW,242,13.0,14.0,83,0.00,,,0.74,Wunderground v.1.15,2013-02-26 20:33:00,
2013-02-26 14:38:00,47.6,42.1,29.49,SW,231,11.0,14.0,81,0.00,,,0.74,Wunderground v.1.15,2013-02-26 20:38:00,
2013-02-26 14:43:00,47.4,41.2,29.49,WSW,251,11.0,16.0,79,0.00,,,0.74,Wunderground v.1.15,2013-02-26 20:43:00,
2013-02-26 14:49:00,47.2,41.7,29.50,WSW,248,11.0,16.0,81,0.00,,,0.74,Wunderground v.1.15,2013-02-26 20:49:00,
2013-02-26 14:54:00,47.3,41.1,29.49,SSW,212,11.0,11.0,79,0.00,,,0.74,Wunderground v.1.15,2013-02-26 20:54:00,
2013-02-26 15:00:00,47.4,41.2,29.49,West,271,10.0,11.0,79,0.00,,,0.74,Wunderground v.1.15,2013-02-26 21:00:00,
2013-02-26 15:06:00,47.1,40.9,29.50,WSW,252,10.0,14.0,79,0.00,,,0.74,Wunderground v.1.15,2013-02-26 21:06:00,
2013-02-26 15:11:00,46.8,41.0,29.50,SW,234,10.0,10.0,80,0.00,,,0.74,Wunderground v.1.15,2013-02-26 21:11:00,
2013-02-26 15:17:00,46.8,41.0,29.50,SW,225,8.0,10.0,80,0.00,,,0.74,Wunderground v.1.15,2013-02-26 21:17:00,
2013-02-26 15:22:00,46.9,40.7,29.50,SW,221,8.0,11.0,79,0.00,,,0.74,Wunderground v.1.15,2013-02-26 21:22:00,
2013-02-26 15:27:00,46.6,40.4,29.51,West,265,8.0,11.0,79,0.00,,,0.74,Wunderground v.1.15,2013-02-26 21:27:00,
2013-02-26 15:33:00,46.1,39.9,29.51,WSW,253,8.0,13.0,79,0.00,,,0.74,Wunderground v.1.15,2013-02-26 21:33:00,
2013-02-26 15:38:00,45.5,39.0,29.51,WSW,242,13.0,21.0,78,0.00,,,0.74,Wunderground v.1.15,2013-02-26 21:38:00,
2013-02-26 15:44:00,45.1,39.3,29.51,WSW,238,15.0,15.0,80,0.00,,,0.74,Wunderground v.1.15,2013-02-26 21:44:00,
2013-02-26 15:49:00,44.9,39.1,29.51,WSW,251,13.0,18.0,80,0.00,,,0.74,Wunderground v.1.15,2013-02-26 21:49:00,
2013-02-26 15:55:00,44.6,39.1,29.52,West,271,13.0,13.0,81,0.00,,,0.74,Wunderground v.1.15,2013-02-26 21:55:00,
2013-02-26 16:00:00,44.4,39.2,29.52,WSW,250,11.0,11.0,82,0.00,,,0.74,Wunderground v.1.15,2013-02-26 22:00:00,
2013-02-26 16:06:00,44.6,39.4,29.52,WSW,254,10.0,13.0,82,0.00,,,0.74,Wunderground v.1.15,2013-02-26 22:06:00,
2013-02-26 16:11:00,44.7,38.9,29.53,WSW,255,11.0,15.0,80,0.00,,,0.74,Wunderground v.1.15,2013-02-26 22:11:00,
2013-02-26 16:16:00,44.4,38.9,29.53,West,269,11.0,15.0,81,0.00,,,0.74,Wunderground v.1.15,2013-02-26 22:16:00,
2013-02-26 16:22:00,43.8,39.3,29.54,West,259,12.0,17.0,84,0.00,,,0.74,Wunderground v.1.15,2013-02-26 22:22:00,
2013-02-26 16:28:00,42.8,38.6,29.54,WSW,250,14.0,20.0,85,0.00,,,0.74,Wunderground v.1.15,2013-02-26 22:28:00,
2013-02-26 16:33:00,42.4,38.5,29.54,SW,235,15.0,15.0,86,0.00,,,0.74,Wunderground v.1.15,2013-02-26 22:33:00,
2013-02-26 16:39:00,42.3,38.7,29.55,West,268,14.0,15.0,87,0.00,,,0.74,Wunderground v.1.15,2013-02-26 22:39:00,
2013-02-26 16:44:00,42.3,38.7,29.55,WSW,253,13.0,18.0,87,0.00,,,0.75,Wunderground v.1.15,2013-02-26 22:44:00,
2013-02-26 16:50:00,42.0,38.7,29.55,WSW,252,14.0,14.0,88,0.00,,,0.75,Wunderground v.1.15,2013-02-26 22:50:00,
2013-02-26 16:55:00,41.8,38.5,29.56,West,277,13.0,15.0,88,0.00,,,0.75,Wunderground v.1.15,2013-02-26 22:55:00,
2013-02-26 17:00:00,41.7,38.4,29.56,WSW,239,13.0,13.0,88,0.00,,,0.75,Wunderground v.1.15,2013-02-26 23:00:00,
2013-02-26 17:06:00,41.6,38.0,29.56,WSW,251,13.0,18.0,87,0.00,,,0.75,Wunderground v.1.15,2013-02-26 23:06:00,
2013-02-26 17:12:00,41.4,37.8,29.56,WSW,247,15.0,19.0,87,0.00,,,0.76,Wunderground v.1.15,2013-02-26 23:12:00,
2013-02-26 17:18:00,41.2,37.6,29.57,West,260,15.0,19.0,87,0.00,,,0.76,Wunderground v.1.15,2013-02-26 23:18:00,
2013-02-26 17:23:00,41.0,37.7,29.57,SW,234,13.0,14.0,88,0.00,,,0.76,Wunderground v.1.15,2013-02-26 23:23:00,
2013-02-26 17:29:00,40.9,37.6,29.57,SW,225,12.0,14.0,88,0.00,,,0.76,Wunderground v.1.15,2013-02-26 23:29:00,
2013-02-26 17:34:00,40.9,37.6,29.57,WSW,248,12.0,14.0,88,0.00,,,0.76,Wunderground v.1.15,2013-02-26 23:34:00,
2013-02-26 17:40:00,40.8,37.5,29.58,WSW,238,11.0,11.0,88,0.00,,,0.76,Wunderground v.1.15,2013-02-26 23:40:00,
2013-02-26 17:45:00,40.7,37.4,29.58,SW,221,10.0,14.0,88,0.00,,,0.76,Wunderground v.1.15,2013-02-26 23:45:00,
2013-02-26 17:50:00,40.6,37.6,29.58,SW,227,11.0,11.0,89,0.00,,,0.76,Wunderground v.1.15,2013-02-26 23:50:00,
2013-02-26 17:55:00,40.5,37.5,29.58,WSW,250,11.0,13.0,89,0.00,,,0.76,Wunderground v.1.15,2013-02-26 23:55:00,
2013-02-26 18:00:00,40.5,37.5,29.58,West,265,11.0,15.0,89,0.00,,,0.76,Wunderground v.1.15,2013-02-27 00:00:00,
2013-02-26 18:07:00,40.5,37.5,29.59,WSW,244,11.0,17.0,89,0.00,,,0.76,Wunderground v.1.15,2013-02-27 00:07:00,
2013-02-26 18:12:00,40.5,37.8,29.59,SW,236,11.0,11.0,90,0.00,,,0.76,Wunderground v.1.15,2013-02-27 00:12:00,
2013-02-26 18:17:00,40.3,37.6,29.59,West,261,10.0,14.0,90,0.00,,,0.76,Wunderground v.1.15,2013-02-27 00:17:00,
2013-02-26 18:23:00,40.2,37.5,29.60,WSW,248,10.0,11.0,90,0.00,,,0.76,Wunderground v.1.15,2013-02-27 00:23:00,
2013-02-26 18:28:00,40.1,37.1,29.60,WSW,241,10.0,16.0,89,0.00,,,0.76,Wunderground v.1.15,2013-02-27 00:28:00,
2013-02-26 18:34:00,40.0,37.3,29.61,WSW,246,11.0,14.0,90,0.00,,,0.76,Wunderground v.1.15,2013-02-27 00:34:00,
2013-02-26 18:40:00,39.7,37.0,29.61,West,263,12.0,12.0,90,0.00,,,0.76,Wunderground v.1.15,2013-02-27 00:40:00,
2013-02-26 18:46:00,39.7,37.3,29.61,SW,227,10.0,12.0,91,0.00,,,0.76,Wunderground v.1.15,2013-02-27 00:46:00,
2013-02-26 18:51:00,39.7,37.3,29.61,West,260,9.0,15.0,91,0.00,,,0.76,Wunderground v.1.15,2013-02-27 00:51:00,
2013-02-26 18:57:00,39.7,37.3,29.62,WSW,255,9.0,15.0,91,0.00,,,0.76,Wunderground v.1.15,2013-02-27 00:57:00,
2013-02-26 19:02:00,39.7,37.3,29.62,WSW,248,10.0,11.0,91,0.00,,,0.76,Wunderground v.1.15,2013-02-27 01:02:00,
2013-02-26 19:08:00,39.6,37.2,29.62,WSW,248,11.0,11.0,91,0.00,,,0.76,Wunderground v.1.15,2013-02-27 01:08:00,
2013-02-26 19:13:00,39.5,37.1,29.62,WSW,249,10.0,10.0,91,0.00,,,0.76,Wunderground v.1.15,2013-02-27 01:13:00,
2013-02-26 19:18:00,39.5,37.1,29.62,SW,236,9.0,11.0,91,0.00,,,0.76,Wunderground v.1.15,2013-02-27 01:18:00,
2013-02-26 19:23:00,39.6,36.9,29.62,WSW,254,9.0,10.0,90,0.00,,,0.76,Wunderground v.1.15,2013-02-27 01:23:00,
2013-02-26 19:29:00,39.6,36.9,29.63,WSW,248,8.0,10.0,90,0.00,,,0.76,Wunderground v.1.15,2013-02-27 01:29:00,
2013-02-26 19:35:00,39.7,37.0,29.63,SW,220,7.0,10.0,90,0.00,,,0.76,Wunderground v.1.15,2013-02-27 01:35:00,
2013-02-26 19:40:00,39.7,37.0,29.63,WSW,244,7.0,7.0,90,0.00,,,0.76,Wunderground v.1.15,2013-02-27 01:40:00,
2013-02-26 19:45:00,39.8,36.8,29.63,WSW,244,7.0,10.0,89,0.00,,,0.76,Wunderground v.1.15,2013-02-27 01:45:00,
2013-02-26 19:50:00,39.9,36.9,29.63,WSW,246,8.0,9.0,89,0.00,,,0.76,Wunderground v.1.15,2013-02-27 01:50:00,
2013-02-26 19:55:00,40.0,37.0,29.63,West,265,8.0,10.0,89,0.00,,,0.76,Wunderground v.1.15,2013-02-27 01:55:00,
2013-02-26 20:00:00,40.0,37.0,29.64,SW,220,9.0,9.0,89,0.00,,,0.76,Wunderground v.1.15,2013-02-27 02:00:00,
2013-02-26 20:06:00,40.0,36.7,29.64,WSW,238,8.0,10.0,88,0.00,,,0.76,Wunderground v.1.15,2013-02-27 02:06:00,
2013-02-26 20:12:00,40.0,37.0,29.64,SSW,213,10.0,12.0,89,0.00,,,0.76,Wunderground v.1.15,2013-02-27 02:12:00,
2013-02-26 20:18:00,39.9,36.9,29.65,SW,231,11.0,12.0,89,0.00,,,0.76,Wunderground v.1.15,2013-02-27 02:18:00,
2013-02-26 20:23:00,39.9,36.9,29.65,WSW,240,9.0,10.0,89,0.00,,,0.76,Wunderground v.1.15,2013-02-27 02:23:00,
2013-02-26 20:29:00,40.0,37.0,29.65,WSW,249,9.0,11.0,89,0.00,,,0.76,Wunderground v.1.15,2013-02-27 02:29:00,
2013-02-26 20:35:00,40.0,37.0,29.65,West,266,10.0,12.0,89,0.00,,,0.76,Wunderground v.1.15,2013-02-27 02:35:00,
2013-02-26 20:40:00,39.8,37.1,29.66,SW,231,11.0,11.0,90,0.00,,,0.76,Wunderground v.1.15,2013-02-27 02:40:00,
2013-02-26 20:46:00,39.7,36.7,29.66,West,262,11.0,15.0,89,0.00,,,0.76,Wunderground v.1.15,2013-02-27 02:46:00,
2013-02-26 20:52:00,39.8,36.8,29.67,WSW,251,12.0,12.0,89,0.00,,,0.76,Wunderground v.1.15,2013-02-27 02:52:00,
2013-02-26 20:58:00,39.8,36.8,29.67,West,262,11.0,12.0,89,0.00,,,0.76,Wunderground v.1.15,2013-02-27 02:58:00,
2013-02-26 21:03:00,39.7,36.7,29.67,West,264,10.0,12.0,89,0.00,,,0.76,Wunderground v.1.15,2013-02-27 03:03:00,
2013-02-26 21:09:00,39.7,36.7,29.67,WSW,246,10.0,13.0,89,0.00,,,0.76,Wunderground v.1.15,2013-02-27 03:09:00,
2013-02-26 21:15:00,39.7,36.7,29.67,WSW,245,10.0,11.0,89,0.00,,,0.76,Wunderground v.1.15,2013-02-27 03:15:00,
2013-02-26 21:20:00,39.7,36.7,29.68,WSW,254,9.0,9.0,89,0.00,,,0.76,Wunderground v.1.15,2013-02-27 03:20:00,
2013-02-26 21:25:00,39.7,36.7,29.68,West,259,9.0,11.0,89,0.00,,,0.76,Wunderground v.1.15,2013-02-27 03:25:00,
2013-02-26 21:30:00,39.6,36.6,29.68,West,278,9.0,9.0,89,0.00,,,0.76,Wunderground v.1.15,2013-02-27 03:30:00,
2013-02-26 21:35:00,39.6,36.6,29.68,WSW,251,9.0,11.0,89,0.00,,,0.76,Wunderground v.1.15,2013-02-27 03:35:00,
2013-02-26 21:40:00,39.7,36.7,29.68,WSW,251,10.0,10.0,89,0.00,,,0.76,Wunderground v.1.15,2013-02-27 03:40:00,
2013-02-26 21:46:00,39.7,36.7,29.68,WSW,257,10.0,10.0,89,0.00,,,0.76,Wunderground v.1.15,2013-02-27 03:46:00,
2013-02-26 21:51:00,39.5,36.5,29.68,WSW,254,10.0,13.0,89,0.00,,,0.77,Wunderground v.1.15,2013-02-27 03:51:00,
2013-02-26 21:56:00,39.4,36.4,29.69,WSW,257,12.0,15.0,89,0.00,,,0.77,Wunderground v.1.15,2013-02-27 03:56:00,
2013-02-26 22:02:00,39.4,36.4,29.69,West,261,12.0,18.0,89,0.00,,,0.77,Wunderground v.1.15,2013-02-27 04:02:00,
2013-02-26 22:08:00,39.5,36.0,29.69,West,281,13.0,18.0,87,0.00,,,0.77,Wunderground v.1.15,2013-02-27 04:08:00,
2013-02-26 22:13:00,39.6,35.8,29.69,West,261,14.0,14.0,86,0.00,,,0.77,Wunderground v.1.15,2013-02-27 04:13:00,
2013-02-26 22:18:00,39.6,35.8,29.69,West,263,12.0,14.0,86,0.00,,,0.77,Wunderground v.1.15,2013-02-27 04:18:00,
2013-02-26 22:23:00,39.3,36.0,29.69,WSW,250,12.0,16.0,88,0.00,,,0.77,Wunderground v.1.15,2013-02-27 04:23:00,
2013-02-26 22:28:00,39.2,35.9,29.69,West,269,13.0,16.0,88,0.00,,,0.77,Wunderground v.1.15,2013-02-27 04:28:00,
2013-02-26 22:34:00,39.2,35.9,29.69,West,260,11.0,13.0,88,0.00,,,0.77,Wunderground v.1.15,2013-02-27 04:34:00,
2013-02-26 22:39:00,39.2,35.9,29.70,WSW,257,11.0,13.0,88,0.00,,,0.77,Wunderground v.1.15,2013-02-27 04:39:00,
2013-02-26 22:44:00,39.2,35.9,29.70,WSW,252,11.0,15.0,88,0.00,,,0.77,Wunderground v.1.15,2013-02-27 04:44:00,
2013-02-26 22:50:00,39.3,35.8,29.70,WSW,252,13.0,13.0,87,0.00,,,0.77,Wunderground v.1.15,2013-02-27 04:50:00,
2013-02-26 22:56:00,39.3,35.5,29.70,WSW,242,13.0,16.0,86,0.00,,,0.77,Wunderground v.1.15,2013-02-27 04:56:00,
2013-02-26 23:00:00,39.4,35.3,29.70,West,271,12.0,12.0,85,0.00,,,0.77,Wunderground v.1.15,2013-02-27 05:00:00,
2013-02-26 23:01:00,39.5,35.4,29.70,West,273,12.0,12.0,85,0.00,,,0.77,Wunderground v.1.15,2013-02-27 05:01:00,
2013-02-26 23:03:00,39.4,35.3,29.70,West,275,11.0,12.0,85,0.00,,,0.77,Wunderground v.1.15,2013-02-27 05:03:00,
2013-02-26 23:04:00,39.4,35.6,29.70,WSW,257,11.0,16.0,86,0.00,,,0.77,Wunderground v.1.15,2013-02-27 05:04:00,
2013-02-26 23:10:00,39.3,35.5,29.70,WSW,257,11.0,13.0,86,0.00,,,0.77,Wunderground v.1.15,2013-02-27 05:10:00,
2013-02-26 23:15:00,39.2,35.7,29.70,WSW,248,11.0,14.0,87,0.00,,,0.77,Wunderground v.1.15,2013-02-27 05:15:00,
2013-02-26 23:21:00,39.1,35.6,29.70,West,264,11.0,11.0,87,0.00,,,0.77,Wunderground v.1.15,2013-02-27 05:21:00,
2013-02-26 23:26:00,39.2,35.4,29.70,WSW,248,11.0,12.0,86,0.00,,,0.77,Wunderground v.1.15,2013-02-27 05:26:00,